createdAt,value
2018-05-21T00:01:27.913Z,95.10
2018-05-21T00:03:55.682Z,94.90
2018-05-21T00:06:23.357Z,94.90
2018-05-21T00:08:51.040Z,94.90
2018-05-21T00:11:18.720Z,95.00
2018-05-21T00:13:46.389Z,95.10
2018-05-21T00:16:14.081Z,95.10
2018-05-21T00:18:42.532Z,94.80
2018-05-21T00:21:10.201Z,94.80
2018-05-21T00:23:37.906Z,94.90
2018-05-21T00:26:05.610Z,94.60
2018-05-21T00:28:33.290Z,94.60
2018-05-21T00:31:01.068Z,94.80
2018-05-21T00:33:28.753Z,94.70
2018-05-21T00:35:57.199Z,94.50
2018-05-21T00:38:24.880Z,94.50
2018-05-21T00:40:52.555Z,94.50
2018-05-21T00:43:20.997Z,94.80
2018-05-21T00:45:48.698Z,94.70
2018-05-21T00:48:17.164Z,95.40
2018-05-21T00:50:44.851Z,95.30
2018-05-21T00:53:13.309Z,95.30
2018-05-21T00:55:41.020Z,95.30
2018-05-21T00:58:08.702Z,95.70
2018-05-21T01:00:36.367Z,95.50
2018-05-21T01:03:04.061Z,95.40
2018-05-21T01:05:32.516Z,95.30
2018-05-21T01:08:00.200Z,95.30
2018-05-21T01:10:27.892Z,95.20
2018-05-21T01:12:55.595Z,95.40
2018-05-21T01:15:23.269Z,95.10
2018-05-21T01:17:50.953Z,95.50
2018-05-21T01:20:18.664Z,95.40
2018-05-21T01:22:46.343Z,95.20
2018-05-21T01:25:14.141Z,95.60
2018-05-21T01:27:41.813Z,95.30
2018-05-21T01:30:10.284Z,95.30
2018-05-21T01:32:37.960Z,95.30
2018-05-21T01:35:06.444Z,94.80
2018-05-21T01:37:34.899Z,95.10
2018-05-21T01:40:02.573Z,95.10
2018-05-21T01:42:30.262Z,95.00
2018-05-21T01:44:57.965Z,95.10
2018-05-21T01:47:25.656Z,95.30
2018-05-21T01:49:53.337Z,95.40
2018-05-21T01:52:21.780Z,94.60
2018-05-21T01:54:49.468Z,94.60
2018-05-21T01:57:17.168Z,94.70
2018-05-21T01:59:44.872Z,95.60
2018-05-21T02:02:12.557Z,96.10
2018-05-21T02:04:40.286Z,96.60
2018-05-21T02:07:07.981Z,95.80
2018-05-21T02:09:35.669Z,95.00
2018-05-21T02:12:04.165Z,96.10
2018-05-21T02:14:31.869Z,96.10
2018-05-21T02:16:59.557Z,95.60
2018-05-21T02:19:28.025Z,94.70
2018-05-21T02:21:55.705Z,94.70
2018-05-21T02:24:24.172Z,95.30
2018-05-21T02:26:51.867Z,95.30
2018-05-21T02:29:19.857Z,95.10
2018-05-21T02:31:47.554Z,95.30
2018-05-21T02:34:15.237Z,95.10
2018-05-21T02:36:43.688Z,95.70
2018-05-21T02:39:11.376Z,95.70
2018-05-21T02:41:39.852Z,96.60
2018-05-21T02:44:07.564Z,96.50
2018-05-21T02:46:35.256Z,96.20
2018-05-21T02:49:02.944Z,95.10
2018-05-21T02:51:30.714Z,95.30
2018-05-21T02:53:59.166Z,95.70
2018-05-21T02:56:26.853Z,95.60
2018-05-21T02:58:54.533Z,95.20
2018-05-21T03:01:22.983Z,95.30
2018-05-21T03:03:50.666Z,95.30
2018-05-21T03:06:19.112Z,94.90
2018-05-21T03:08:46.780Z,94.90
2018-05-21T03:11:14.460Z,95.30
2018-05-21T03:13:42.139Z,96.00
2018-05-21T03:16:10.585Z,94.80
2018-05-21T03:18:38.283Z,94.80
2018-05-21T03:21:06.748Z,96.50
2018-05-21T03:23:34.484Z,96.40
2018-05-21T03:26:02.156Z,95.00
2018-05-21T03:28:29.838Z,94.90
2018-05-21T03:30:57.517Z,95.70
2018-05-21T03:33:25.982Z,96.80
2018-05-21T03:35:54.673Z,95.30
2018-05-21T03:38:23.121Z,95.70
2018-05-21T03:40:50.809Z,95.70
2018-05-21T03:43:18.471Z,94.90
2018-05-21T03:45:46.149Z,95.00
2018-05-21T03:48:14.590Z,96.20
2018-05-21T03:50:43.280Z,96.20
2018-05-21T03:53:10.960Z,96.20
2018-05-21T03:55:38.641Z,95.60
2018-05-21T03:58:19.096Z,94.80
2018-05-21T04:00:59.369Z,95.10
2018-05-21T04:03:39.336Z,95.10
2018-05-21T04:06:07.021Z,95.30
2018-05-21T04:08:34.705Z,95.80
2018-05-21T04:11:02.396Z,96.00
2018-05-21T04:13:30.876Z,95.70
2018-05-21T04:15:59.325Z,95.40
2018-05-21T04:18:27.008Z,95.40
2018-05-21T04:20:54.773Z,95.30
2018-05-21T04:23:22.448Z,95.90
2018-05-21T04:25:50.893Z,95.20
2018-05-21T04:28:18.576Z,95.20
2018-05-21T04:30:46.251Z,95.00
2018-05-21T04:33:14.692Z,95.70
2018-05-21T04:35:42.397Z,95.70
2018-05-21T04:38:10.840Z,95.60
2018-05-21T04:40:38.545Z,95.60
2018-05-21T04:43:06.989Z,96.60
2018-05-21T04:45:34.673Z,96.50
2018-05-21T04:48:03.128Z,95.50
2018-05-21T04:50:30.794Z,95.50
2018-05-21T04:52:58.484Z,95.00
2018-05-21T04:55:26.930Z,95.40
2018-05-21T04:57:54.613Z,95.30
2018-05-21T05:00:22.296Z,95.50
2018-05-21T05:02:50.737Z,95.70
2018-05-21T05:05:18.426Z,95.70
2018-05-21T05:07:47.248Z,95.40
2018-05-21T05:10:14.960Z,95.40
2018-05-21T05:12:42.902Z,95.70
2018-05-21T05:15:10.675Z,95.00
2018-05-21T05:17:38.349Z,95.30
2018-05-21T05:20:06.128Z,95.40
2018-05-21T05:22:33.877Z,94.90
2018-05-21T05:25:01.621Z,94.20
2018-05-21T05:27:29.424Z,94.10
2018-05-21T05:29:57.164Z,93.50
2018-05-21T05:32:25.550Z,93.70
2018-05-21T05:34:53.321Z,93.40
2018-05-21T05:37:21.063Z,93.40
2018-05-21T05:39:48.760Z,93.60
2018-05-21T05:42:16.501Z,92.90
2018-05-21T05:44:44.213Z,92.90
2018-05-21T05:47:11.914Z,92.90
2018-05-21T05:49:39.598Z,92.60
2018-05-21T05:52:07.359Z,92.20
2018-05-21T05:54:35.066Z,92.30
2018-05-21T05:57:02.932Z,92.30
2018-05-21T05:59:30.712Z,92.60
2018-05-21T06:01:58.500Z,92.70
2018-05-21T06:04:26.215Z,92.20
2018-05-21T06:06:54.661Z,92.10
2018-05-21T06:09:22.344Z,92.10
2018-05-21T06:11:50.571Z,92.40
2018-05-21T06:14:18.361Z,91.60
2018-05-21T06:16:46.129Z,92.00
2018-05-21T06:19:13.892Z,91.20
2018-05-21T06:21:41.581Z,91.30
2018-05-21T06:24:10.073Z,91.50
2018-05-21T06:26:37.867Z,91.40
2018-05-21T06:29:05.665Z,92.00
2018-05-21T06:31:33.432Z,91.70
2018-05-21T06:34:01.296Z,91.70
2018-05-21T06:36:28.988Z,92.20
2018-05-21T06:38:57.464Z,92.00
2018-05-21T06:41:25.297Z,92.00
2018-05-21T06:43:53.008Z,92.50
2018-05-21T06:46:21.489Z,92.30
2018-05-21T06:48:49.980Z,91.70
2018-05-21T06:51:17.725Z,91.70
2018-05-21T06:53:46.223Z,91.90
2018-05-21T06:56:13.930Z,91.80
2018-05-21T06:58:41.716Z,91.20
2018-05-21T07:01:09.501Z,90.50
2018-05-21T07:03:37.985Z,88.80
2018-05-21T07:06:06.599Z,90.50
2018-05-21T07:08:34.309Z,90.50
2018-05-21T07:11:02.024Z,88.90
2018-05-21T07:13:29.846Z,88.80
2018-05-21T07:15:57.798Z,87.60
2018-05-21T07:18:25.516Z,88.90
2018-05-21T07:20:53.366Z,86.80
2018-05-21T07:23:21.108Z,88.50
2018-05-21T07:25:48.909Z,87.70
2018-05-21T07:28:16.606Z,88.70
2018-05-21T07:30:45.346Z,88.70
2018-05-21T07:33:13.879Z,86.30
2018-05-21T07:35:41.591Z,86.20
2018-05-21T07:38:10.133Z,87.10
2018-05-21T07:40:37.833Z,87.00
2018-05-21T07:43:06.590Z,85.70
2018-05-21T07:45:34.344Z,85.60
2018-05-21T07:48:02.101Z,82.80
2018-05-21T07:50:29.874Z,83.80
2018-05-21T07:52:57.650Z,85.20
2018-05-21T07:55:25.392Z,86.00
2018-05-21T07:57:53.245Z,86.60
2018-05-21T08:00:21.064Z,83.20
2018-05-21T08:02:49.544Z,83.60
2018-05-21T08:05:18.179Z,82.80
2018-05-21T08:07:45.832Z,82.70
2018-05-21T08:10:13.697Z,82.00
2018-05-21T08:12:41.393Z,81.90
2018-05-21T08:15:09.144Z,81.50
2018-05-21T08:17:36.836Z,82.10
2018-05-21T08:20:04.790Z,81.30
2018-05-21T08:22:32.502Z,82.50
2018-05-21T08:25:00.236Z,80.80
2018-05-21T08:27:27.966Z,82.30
2018-05-21T08:29:55.710Z,80.90
2018-05-21T08:32:23.441Z,76.30
2018-05-21T08:34:51.189Z,78.10
2018-05-21T08:37:18.977Z,78.20
2018-05-21T08:39:46.756Z,77.60
2018-05-21T08:42:14.489Z,78.90
2018-05-21T08:44:42.428Z,76.90
2018-05-21T08:47:10.207Z,75.10
2018-05-21T08:49:37.952Z,76.90
2018-05-21T08:52:06.129Z,78.10
2018-05-21T08:54:33.864Z,76.10
2018-05-21T08:57:01.560Z,72.70
2018-05-21T08:59:29.253Z,74.60
2018-05-21T09:01:57.743Z,73.70
2018-05-21T09:04:25.505Z,73.70
2018-05-21T09:06:53.985Z,73.70
2018-05-21T09:09:22.527Z,72.70
2018-05-21T09:11:50.260Z,72.60
2018-05-21T09:14:18.016Z,71.80
2018-05-21T09:16:45.733Z,70.80
2018-05-21T09:19:13.506Z,71.10
2018-05-21T09:21:41.248Z,67.90
2018-05-21T09:24:10.316Z,73.10
2018-05-21T09:26:38.037Z,69.70
2018-05-21T09:29:05.768Z,68.80
2018-05-21T09:31:33.869Z,67.10
2018-05-21T09:34:01.603Z,71.20
2018-05-21T09:36:29.287Z,69.00
2018-05-21T09:38:57.041Z,67.00
2018-05-21T09:41:24.880Z,62.40
2018-05-21T09:43:52.609Z,59.70
2018-05-21T09:46:21.152Z,62.00
2018-05-21T09:48:48.892Z,62.00
2018-05-21T09:51:16.726Z,58.50
2018-05-21T09:53:44.441Z,64.00
2018-05-21T09:56:12.248Z,65.40
2018-05-21T09:58:40.729Z,64.30
2018-05-21T10:01:09.260Z,64.60
2018-05-21T10:03:36.953Z,64.60
2018-05-21T10:06:04.729Z,62.60
2018-05-21T10:08:33.206Z,63.50
2018-05-21T10:11:00.980Z,63.40
2018-05-21T10:13:29.456Z,59.30
2018-05-21T10:15:57.977Z,59.90
2018-05-21T10:18:25.691Z,59.90
2018-05-21T10:20:53.461Z,62.80
2018-05-21T10:23:21.197Z,60.50
2018-05-21T10:25:48.936Z,59.30
2018-05-21T10:28:16.793Z,60.10
2018-05-21T10:30:44.528Z,61.60
2018-05-21T10:33:12.233Z,56.10
2018-05-21T10:35:39.981Z,51.50
2018-05-21T10:38:07.688Z,52.80
2018-05-21T10:40:35.376Z,54.00
2018-05-21T10:43:03.848Z,52.60
2018-05-21T10:45:31.561Z,52.50
2018-05-21T10:47:59.484Z,54.60
2018-05-21T10:50:27.982Z,53.00
2018-05-21T10:52:55.857Z,53.00
2018-05-21T10:55:23.541Z,52.70
2018-05-21T10:57:51.283Z,49.30
2018-05-21T11:00:19.091Z,48.60
2018-05-21T11:02:46.854Z,49.10
2018-05-21T11:05:14.604Z,51.30
2018-05-21T11:07:42.356Z,49.60
2018-05-21T11:10:10.134Z,47.20
2018-05-21T11:12:37.824Z,50.70
2018-05-21T11:15:06.253Z,45.40
2018-05-21T11:17:33.996Z,47.70
2018-05-21T11:20:02.518Z,42.80
2018-05-21T11:22:30.234Z,42.70
2018-05-21T11:24:57.963Z,43.30
2018-05-21T11:27:25.737Z,46.90
2018-05-21T11:29:53.656Z,39.40
2018-05-21T11:32:22.191Z,42.40
2018-05-21T11:34:49.991Z,42.40
2018-05-21T11:37:18.505Z,43.40
2018-05-21T11:39:46.263Z,43.30
2018-05-21T11:42:14.134Z,44.20
2018-05-21T11:44:41.891Z,44.10
2018-05-21T11:47:09.612Z,45.50
2018-05-21T11:49:37.465Z,42.90
2018-05-21T11:52:05.188Z,44.20
2018-05-21T11:54:32.889Z,42.70
2018-05-21T11:57:00.647Z,43.30
2018-05-21T11:59:28.354Z,41.10
2018-05-21T12:01:56.069Z,42.60
2018-05-21T12:04:24.145Z,42.30
2018-05-21T12:06:51.897Z,41.40
2018-05-21T12:09:19.604Z,42.30
2018-05-21T12:11:48.072Z,42.10
2018-05-21T12:14:15.813Z,42.10
2018-05-21T12:16:43.508Z,45.20
2018-05-21T12:19:11.211Z,41.00
2018-05-21T12:21:39.004Z,47.10
2018-05-21T12:24:06.709Z,42.30
2018-05-21T12:26:35.219Z,39.70
2018-05-21T12:29:02.941Z,39.70
2018-05-21T12:31:30.709Z,41.60
2018-05-21T12:33:58.400Z,42.20
2018-05-21T12:36:26.432Z,41.00
2018-05-21T12:38:54.143Z,40.10
2018-05-21T12:41:21.948Z,39.70
2018-05-21T12:43:49.645Z,39.70
2018-05-21T12:46:17.511Z,37.60
2018-05-21T12:48:46.059Z,41.30
2018-05-21T12:51:14.808Z,41.20
2018-05-21T12:53:42.763Z,40.20
2018-05-21T12:56:10.504Z,39.90
2018-05-21T12:58:39.045Z,41.40
2018-05-21T13:01:06.939Z,41.40
2018-05-21T13:03:34.691Z,40.20
2018-05-21T13:06:02.390Z,42.30
2018-05-21T13:08:30.956Z,42.60
2018-05-21T13:10:58.755Z,42.50
2018-05-21T13:13:26.481Z,40.10
2018-05-21T13:15:54.254Z,39.50
2018-05-21T13:18:21.956Z,38.60
2018-05-21T13:20:49.744Z,36.50
2018-05-21T13:23:17.468Z,38.80
2018-05-21T13:25:45.330Z,37.50
2018-05-21T13:28:13.789Z,41.40
2018-05-21T13:30:41.596Z,41.20
2018-05-21T13:33:09.297Z,42.90
2018-05-21T13:35:36.989Z,42.70
2018-05-21T13:38:05.541Z,47.70
2018-05-21T13:40:33.308Z,47.30
2018-05-21T13:43:01.081Z,46.60
2018-05-21T13:45:28.777Z,48.80
2018-05-21T13:47:56.502Z,49.30
2018-05-21T13:50:24.209Z,49.20
2018-05-21T13:52:51.992Z,45.40
2018-05-21T13:55:19.680Z,48.10
2018-05-21T13:57:47.417Z,43.00
2018-05-21T14:00:15.233Z,42.60
2018-05-21T14:02:42.980Z,47.40
2018-05-21T14:05:10.723Z,43.60
2018-05-21T14:07:38.504Z,44.30
2018-05-21T14:10:06.216Z,45.50
2018-05-21T14:12:34.853Z,42.90
2018-05-21T14:15:02.544Z,42.90
2018-05-21T14:17:30.275Z,40.70
2018-05-21T14:19:58.097Z,44.80
2018-05-21T14:22:26.008Z,41.40
2018-05-21T14:24:53.752Z,40.40
2018-05-21T14:27:21.514Z,39.80
2018-05-21T14:29:49.480Z,40.70
2018-05-21T14:32:17.118Z,44.50
2018-05-21T14:34:45.604Z,45.00
2018-05-21T14:37:13.403Z,45.00
2018-05-21T14:39:41.219Z,47.10
2018-05-21T14:42:08.993Z,44.40
2018-05-21T14:44:37.511Z,47.10
2018-05-21T14:47:05.253Z,46.90
2018-05-21T14:49:32.960Z,46.00
2018-05-21T14:52:00.659Z,48.90
2018-05-21T14:54:29.145Z,46.80
2018-05-21T14:56:57.657Z,44.80
2018-05-21T14:59:25.484Z,44.20
2018-05-21T15:01:54.009Z,47.30
2018-05-21T15:04:21.769Z,47.20
2018-05-21T15:06:49.519Z,44.40
2018-05-21T15:09:17.281Z,47.70
2018-05-21T15:11:45.012Z,49.90
2018-05-21T15:14:12.780Z,45.10
2018-05-21T15:16:40.880Z,44.00
2018-05-21T15:19:08.589Z,45.20
2018-05-21T15:21:36.334Z,46.40
2018-05-21T15:24:04.051Z,45.50
2018-05-21T15:26:32.601Z,50.30
2018-05-21T15:29:00.364Z,50.30
2018-05-21T15:31:28.121Z,50.20
2018-05-21T15:33:55.853Z,50.90
2018-05-21T15:36:23.574Z,46.60
2018-05-21T15:38:51.312Z,46.90
2018-05-21T15:41:19.031Z,45.20
2018-05-21T15:43:46.751Z,49.20
2018-05-21T15:46:14.496Z,48.30
2018-05-21T15:48:42.446Z,50.00
2018-05-21T15:51:10.213Z,53.50
2018-05-21T15:53:37.908Z,47.70
2018-05-21T15:56:05.694Z,47.90
2018-05-21T15:58:33.405Z,49.00
2018-05-21T16:01:01.165Z,49.40
2018-05-21T16:03:28.864Z,48.60
2018-05-21T16:05:56.730Z,48.90
2018-05-21T16:08:24.429Z,49.40
2018-05-21T16:10:53.008Z,49.90
2018-05-21T16:13:21.521Z,52.00
2018-05-21T16:15:49.264Z,51.90
2018-05-21T16:18:17.732Z,52.20
2018-05-21T16:20:46.232Z,52.60
2018-05-21T16:23:14.004Z,52.50
2018-05-21T16:25:42.468Z,56.80
2018-05-21T16:28:10.195Z,56.70
2018-05-21T16:30:37.928Z,56.40
2018-05-21T16:33:05.714Z,55.80
2018-05-21T16:35:33.457Z,55.80
2018-05-21T16:38:01.609Z,56.10
2018-05-21T16:40:29.414Z,59.20
2018-05-21T16:42:57.130Z,64.90
2018-05-21T16:45:24.846Z,62.80
2018-05-21T16:47:52.560Z,60.30
2018-05-21T16:50:20.401Z,59.70
2018-05-21T16:52:48.106Z,62.30
2018-05-21T16:55:15.858Z,63.20
2018-05-21T16:57:43.564Z,61.90
2018-05-21T17:00:11.327Z,64.20
2018-05-21T17:02:39.088Z,64.10
2018-05-21T17:05:06.859Z,64.90
2018-05-21T17:07:34.624Z,62.30
2018-05-21T17:10:02.529Z,62.70
2018-05-21T17:12:31.040Z,62.70
2018-05-21T17:14:58.777Z,62.50
2018-05-21T17:17:26.532Z,62.30
2018-05-21T17:19:55.061Z,63.00
2018-05-21T17:22:22.989Z,62.90
2018-05-21T17:24:51.965Z,59.50
2018-05-21T17:27:19.709Z,59.40
2018-05-21T17:29:47.451Z,59.70
2018-05-21T17:32:15.171Z,56.40
2018-05-21T17:34:43.744Z,58.00
2018-05-21T17:37:11.509Z,58.00
2018-05-21T17:39:39.257Z,57.80
2018-05-21T17:42:07.016Z,58.30
2018-05-21T17:44:34.777Z,57.80
2018-05-21T17:47:02.568Z,58.70
2018-05-21T17:49:30.347Z,58.60
2018-05-21T17:51:58.024Z,58.70
2018-05-21T17:54:25.748Z,59.60
2018-05-21T17:56:53.929Z,61.00
2018-05-21T17:59:21.674Z,62.40
2018-05-21T18:01:49.386Z,62.80
2018-05-21T18:04:17.110Z,63.10
2018-05-21T18:06:44.874Z,62.90
2018-05-21T18:09:12.669Z,63.30
2018-05-21T18:11:41.240Z,65.60
2018-05-21T18:14:09.765Z,64.50
2018-05-21T18:16:37.579Z,64.40
2018-05-21T18:19:05.313Z,64.00
2018-05-21T18:21:33.054Z,65.00
2018-05-21T18:24:00.769Z,66.30
2018-05-21T18:26:28.552Z,66.00
2018-05-21T18:28:57.246Z,67.00
2018-05-21T18:31:25.094Z,67.60
2018-05-21T18:33:53.585Z,67.50
2018-05-21T18:36:22.127Z,66.30
2018-05-21T18:38:49.881Z,66.30
2018-05-21T18:41:17.713Z,67.60
2018-05-21T18:43:45.414Z,69.60
2018-05-21T18:46:13.208Z,70.30
2018-05-21T18:48:40.948Z,70.50
2018-05-21T18:51:08.658Z,69.10
2018-05-21T18:53:36.382Z,68.60
2018-05-21T18:56:04.342Z,68.60
2018-05-21T18:58:32.039Z,68.50
2018-05-21T19:01:00.968Z,69.60
2018-05-21T19:03:28.682Z,69.50
2018-05-21T19:05:56.381Z,70.50
2018-05-21T19:08:24.125Z,72.60
2018-05-21T19:10:52.707Z,73.20
2018-05-21T19:13:21.222Z,71.80
2018-05-21T19:15:48.976Z,71.80
2018-05-21T19:18:16.717Z,71.50
2018-05-21T19:20:45.192Z,71.90
2018-05-21T19:23:12.947Z,71.80
2018-05-21T19:25:40.645Z,70.40
2018-05-21T19:28:08.382Z,72.40
2018-05-21T19:30:36.933Z,73.80
2018-05-21T19:33:05.170Z,73.70
2018-05-21T19:35:32.928Z,73.10
2018-05-21T19:38:00.634Z,74.60
2018-05-21T19:40:28.332Z,73.80
2018-05-21T19:42:56.086Z,72.20
2018-05-21T19:45:23.824Z,73.00
2018-05-21T19:47:51.630Z,73.60
2018-05-21T19:50:20.572Z,78.10
2018-05-21T19:52:48.342Z,78.00
2018-05-21T19:55:16.045Z,77.80
2018-05-21T19:57:44.558Z,74.10
2018-05-21T20:00:12.309Z,74.00
2018-05-21T20:02:40.883Z,75.20
2018-05-21T20:05:09.364Z,77.00
2018-05-21T20:07:37.866Z,78.60
2018-05-21T20:10:05.681Z,78.60
2018-05-21T20:12:33.430Z,79.00
2018-05-21T20:15:01.143Z,79.50
2018-05-21T20:17:29.650Z,78.00
2018-05-21T20:19:57.420Z,77.90
2018-05-21T20:22:25.205Z,77.80
2018-05-21T20:24:52.970Z,80.30
2018-05-21T20:27:20.705Z,79.30
2018-05-21T20:29:48.526Z,79.70
2018-05-21T20:32:16.246Z,79.00
2018-05-21T20:34:44.004Z,78.40
2018-05-21T20:37:11.759Z,80.80
2018-05-21T20:39:39.533Z,82.20
2018-05-21T20:42:07.270Z,82.90
2018-05-21T20:44:35.753Z,85.60
2018-05-21T20:47:04.216Z,86.40
2018-05-21T20:49:31.893Z,86.30
2018-05-21T20:52:00.349Z,87.00
2018-05-21T20:54:28.093Z,87.00
2018-05-21T20:56:55.773Z,87.10
2018-05-21T20:59:23.498Z,87.00
2018-05-21T21:01:51.209Z,84.80
2018-05-21T21:04:18.890Z,84.60
2018-05-21T21:06:46.589Z,84.70
2018-05-21T21:09:14.376Z,85.80
2018-05-21T21:11:42.061Z,86.10
2018-05-21T21:14:09.741Z,88.10
2018-05-21T21:16:38.175Z,84.70
2018-05-21T21:19:05.869Z,84.60
2018-05-21T21:21:33.613Z,85.30
2018-05-21T21:24:01.298Z,85.50
2018-05-21T21:26:29.977Z,86.50
2018-05-21T21:28:57.657Z,86.50
2018-05-21T21:31:26.116Z,89.80
2018-05-21T21:33:53.816Z,89.80
2018-05-21T21:36:21.516Z,89.00
2018-05-21T21:38:49.193Z,87.00
2018-05-21T21:41:17.148Z,88.10
2018-05-21T21:43:44.845Z,88.90
2018-05-21T21:46:13.296Z,88.80
2018-05-21T21:48:40.975Z,88.60
2018-05-21T21:51:08.654Z,87.00
2018-05-21T21:53:37.103Z,88.60
2018-05-21T21:56:04.834Z,88.50
2018-05-21T21:58:32.553Z,90.40
2018-05-21T22:01:00.360Z,92.10
2018-05-21T22:03:28.050Z,92.60
2018-05-21T22:05:55.719Z,93.20
2018-05-21T22:08:23.389Z,93.50
2018-05-21T22:10:51.072Z,93.70
2018-05-21T22:13:18.756Z,93.80
2018-05-21T22:15:46.444Z,94.00
2018-05-21T22:18:14.124Z,94.10
2018-05-21T22:20:41.897Z,94.10
2018-05-21T22:23:09.585Z,93.60
2018-05-21T22:25:37.257Z,93.70
2018-05-21T22:28:05.704Z,93.90
2018-05-21T22:30:33.405Z,93.90
2018-05-21T22:33:01.876Z,94.30
2018-05-21T22:35:30.324Z,94.20
2018-05-21T22:37:58.025Z,94.20
2018-05-21T22:40:26.493Z,94.60
2018-05-21T22:42:54.308Z,94.50
2018-05-21T22:45:22.272Z,94.30
2018-05-21T22:47:49.972Z,94.30
2018-05-21T22:50:17.662Z,94.60
2018-05-21T22:52:46.108Z,94.70
2018-05-21T22:55:13.798Z,94.70
2018-05-21T22:57:41.473Z,94.90
2018-05-21T23:00:10.021Z,94.30
2018-05-21T23:02:37.774Z,94.30
2018-05-21T23:05:05.487Z,95.00
2018-05-21T23:07:33.977Z,94.80
2018-05-21T23:10:01.708Z,94.80
2018-05-21T23:12:29.392Z,95.20
2018-05-21T23:14:57.864Z,94.30
2018-05-21T23:17:26.336Z,94.60
2018-05-21T23:19:54.019Z,94.60
2018-05-21T23:25:15.130Z,93.60
2018-05-21T23:27:42.897Z,93.60
2018-05-21T23:30:10.593Z,93.90
2018-05-21T23:32:38.337Z,93.80
2018-05-21T23:35:06.776Z,94.00
2018-05-21T23:37:34.465Z,94.00
2018-05-21T23:40:02.233Z,93.70
2018-05-21T23:42:30.682Z,93.20
2018-05-21T23:44:58.377Z,93.20
2018-05-21T23:47:26.829Z,93.50
2018-05-21T23:49:54.669Z,93.50
2018-05-21T23:52:22.357Z,94.20
2018-05-21T23:54:50.041Z,94.50
2018-05-21T23:57:17.725Z,94.80
2018-05-21T23:59:46.189Z,95.00
